Time;durP1;ratioP1;P1;durP2;ratioP2;P2;SDS_P1;SDS_P2;PMS_P1;PMS_P2;Temp;Humidity;BMP_temperature;BMP_pressure;BME280_temperature;BME280_humidity;BME280_pressure;Samples;Min_cycle;Max_cycle;Signal;HPM_P1;HPM_P2
2023/07/28 00:01:06;;;;;;;2.77;1.50;;;;;;;;;;5004214;28;20580;-64
2023/07/28 00:03:31;;;;;;;1.90;1.50;;;;;;;;;;5000599;28;20296;-65
2023/07/28 00:05:57;;;;;;;1.87;1.60;;;;;;;;;;5005353;28;20072;-63
2023/07/28 00:08:22;;;;;;;2.97;1.60;;;;;;;;;;5004039;28;20124;-65
2023/07/28 00:10:47;;;;;;;2.90;1.35;;;;;;;;;;5004476;28;20299;-64
2023/07/28 00:13:12;;;;;;;3.07;1.53;;;;;;;;;;5004639;28;20053;-64
2023/07/28 00:15:38;;;;;;;3.10;1.77;;;;;;;;;;4987406;28;20315;-64
2023/07/28 00:18:03;;;;;;;3.37;2.13;;;;;;;;;;5004130;28;20046;-65
2023/07/28 00:20:28;;;;;;;3.10;1.87;;;;;;;;;;5001737;28;20352;-66
2023/07/28 00:22:53;;;;;;;2.80;1.77;;;;;;;;;;5003617;28;20673;-63
2023/07/28 00:25:19;;;;;;;3.43;1.93;;;;;;;;;;5003760;28;20427;-63
2023/07/28 00:27:44;;;;;;;2.90;2.10;;;;;;;;;;5001123;28;20561;-64
2023/07/28 00:30:10;;;;;;;2.88;1.90;;;;;;;;;;5001919;28;20054;-64
2023/07/28 00:32:35;;;;;;;5.53;2.20;;;;;;;;;;4994645;28;20041;-63
2023/07/28 00:35:01;;;;;;;5.07;2.60;;;;;;;;;;5002199;28;20042;-63
2023/07/28 00:37:26;;;;;;;3.92;2.35;;;;;;;;;;4999941;28;20556;-65
2023/07/28 00:39:51;;;;;;;4.63;2.33;;;;;;;;;;5003963;28;20046;-65
2023/07/28 00:42:16;;;;;;;4.77;2.93;;;;;;;;;;5004431;28;20289;-64
2023/07/28 00:44:42;;;;;;;3.97;2.60;;;;;;;;;;4986979;28;20273;-65
2023/07/28 00:47:07;;;;;;;5.37;2.73;;;;;;;;;;4986149;28;20289;-65
2023/07/28 00:49:32;;;;;;;3.43;2.17;;;;;;;;;;4986247;28;20101;-65
2023/07/28 00:51:57;;;;;;;3.93;2.40;;;;;;;;;;5004130;28;20288;-64
2023/07/28 00:54:22;;;;;;;4.47;2.53;;;;;;;;;;5001913;28;20632;-65
2023/07/28 00:56:49;;;;;;;4.70;2.58;;;;;;;;;;5002868;28;20535;-64
2023/07/28 00:59:14;;;;;;;4.53;2.30;;;;;;;;;;4986887;28;20529;-65
2023/07/28 01:01:39;;;;;;;3.13;2.40;;;;;;;;;;5008121;28;20152;-65
2023/07/28 01:04:04;;;;;;;3.60;2.28;;;;;;;;;;5008099;28;20069;-65
2023/07/28 01:06:33;;;;;;;2.75;2.20;;;;;;;;;;4989593;28;20368;-63
2023/07/28 01:09:03;;;;;;;3.70;2.05;;;;;;;;;;5005177;28;20053;-63
2023/07/28 01:11:29;;;;;;;3.50;2.40;;;;;;;;;;4990234;28;20116;-64
2023/07/28 01:13:54;;;;;;;4.00;2.67;;;;;;;;;;4986723;28;20101;-64
2023/07/28 01:16:20;;;;;;;4.18;2.17;;;;;;;;;;5007180;28;20072;-64
2023/07/28 01:18:46;;;;;;;2.95;2.20;;;;;;;;;;4986917;28;20046;-65
2023/07/28 01:21:13;;;;;;;3.72;2.53;;;;;;;;;;5007043;28;20088;-63
2023/07/28 01:24:00;;;;;;;4.53;2.53;;;;;;;;;;5007568;28;20041;-64
2023/07/28 01:26:43;;;;;;;2.58;2.20;;;;;;;;;;4960294;28;20911;-64
2023/07/28 01:29:08;;;;;;;3.53;2.10;;;;;;;;;;4997875;28;20088;-65
2023/07/28 01:31:34;;;;;;;3.08;2.30;;;;;;;;;;5006999;28;20478;-66
2023/07/28 01:33:59;;;;;;;3.30;2.30;;;;;;;;;;5007726;28;20096;-64
2023/07/28 01:36:24;;;;;;;3.70;2.00;;;;;;;;;;5008005;28;20945;-64
2023/07/28 01:38:49;;;;;;;4.47;2.40;;;;;;;;;;5006093;28;20761;-62
2023/07/28 01:41:15;;;;;;;4.90;2.13;;;;;;;;;;4998994;28;20581;-65
2023/07/28 01:43:41;;;;;;;5.07;2.03;;;;;;;;;;5007037;28;20053;-65
2023/07/28 01:46:06;;;;;;;3.17;2.25;;;;;;;;;;5002834;28;20312;-65
2023/07/28 01:48:32;;;;;;;2.90;2.23;;;;;;;;;;5007027;28;20037;-65
2023/07/28 01:50:57;;;;;;;4.18;2.63;;;;;;;;;;5006833;28;20851;-64
2023/07/28 01:53:22;;;;;;;2.50;2.30;;;;;;;;;;5007493;28;20034;-64
2023/07/28 01:55:47;;;;;;;3.42;2.40;;;;;;;;;;5007210;28;20846;-64
2023/07/28 01:58:13;;;;;;;3.57;2.40;;;;;;;;;;5007009;28;20076;-64
2023/07/28 02:00:38;;;;;;;3.60;2.43;;;;;;;;;;4997113;28;20103;-63
2023/07/28 02:03:03;;;;;;;2.47;2.03;;;;;;;;;;5007167;28;20753;-64
2023/07/28 02:05:29;;;;;;;3.83;2.47;;;;;;;;;;4987288;28;20703;-65
2023/07/28 02:07:55;;;;;;;2.90;2.10;;;;;;;;;;5006427;28;20038;-65
2023/07/28 02:10:21;;;;;;;4.45;2.42;;;;;;;;;;5005317;28;20030;-64
2023/07/28 02:12:46;;;;;;;2.60;2.13;;;;;;;;;;5006553;28;20617;-64
2023/07/28 02:15:13;;;;;;;2.67;2.37;;;;;;;;;;4988870;28;20137;-64
2023/07/28 02:17:38;;;;;;;3.45;2.30;;;;;;;;;;5006420;28;20308;-63
2023/07/28 02:20:04;;;;;;;3.37;2.30;;;;;;;;;;5006306;28;20091;-64
2023/07/28 02:22:29;;;;;;;4.20;2.50;;;;;;;;;;5002943;28;20295;-62
2023/07/28 02:24:54;;;;;;;3.60;2.47;;;;;;;;;;4989201;28;20136;-64
2023/07/28 02:27:20;;;;;;;2.53;2.25;;;;;;;;;;5005870;28;20034;-65
2023/07/28 02:29:45;;;;;;;3.70;2.40;;;;;;;;;;5005833;28;20044;-65
2023/07/28 02:32:11;;;;;;;2.70;2.40;;;;;;;;;;5004934;28;20312;-65
2023/07/28 02:34:36;;;;;;;7.28;2.28;;;;;;;;;;5006553;28;20119;-64
2023/07/28 02:37:01;;;;;;;3.53;2.20;;;;;;;;;;5004961;28;20038;-64
2023/07/28 02:39:26;;;;;;;4.15;2.25;;;;;;;;;;5004566;28;20384;-64
2023/07/28 02:41:51;;;;;;;4.77;2.23;;;;;;;;;;5006085;28;20116;-64
2023/07/28 02:44:17;;;;;;;3.77;2.43;;;;;;;;;;5006556;28;20335;-64
2023/07/28 02:46:42;;;;;;;4.03;2.23;;;;;;;;;;4986739;28;20042;-65
2023/07/28 02:49:07;;;;;;;2.75;2.30;;;;;;;;;;5005883;28;20037;-63
2023/07/28 02:51:35;;;;;;;2.70;2.17;;;;;;;;;;4988509;28;20494;-64
2023/07/28 02:54:01;;;;;;;3.03;2.25;;;;;;;;;;5005013;28;20038;-62
2023/07/28 02:56:26;;;;;;;2.65;2.20;;;;;;;;;;5004036;28;20026;-63
2023/07/28 02:58:51;;;;;;;2.97;1.93;;;;;;;;;;4987167;28;20050;-62
2023/07/28 03:01:17;;;;;;;3.03;2.37;;;;;;;;;;5005655;28;20299;-63
2023/07/28 03:03:42;;;;;;;12.35;2.83;;;;;;;;;;5004575;28;20372;-64
2023/07/28 03:06:07;;;;;;;3.50;2.25;;;;;;;;;;5005710;28;20066;-63
2023/07/28 03:08:33;;;;;;;3.43;2.33;;;;;;;;;;5005505;28;20116;-65
2023/07/28 03:10:58;;;;;;;3.23;2.30;;;;;;;;;;5005573;28;20296;-64
2023/07/28 03:13:23;;;;;;;3.13;2.40;;;;;;;;;;5006067;28;20356;-65
2023/07/28 03:15:48;;;;;;;3.50;2.07;;;;;;;;;;4986635;28;20038;-62
2023/07/28 03:18:14;;;;;;;2.93;2.23;;;;;;;;;;5005602;28;20316;-62
2023/07/28 03:20:39;;;;;;;2.30;1.98;;;;;;;;;;5005494;28;20284;-63
2023/07/28 03:23:04;;;;;;;3.80;2.00;;;;;;;;;;4987137;28;20084;-64
2023/07/28 03:25:29;;;;;;;3.30;2.27;;;;;;;;;;5003503;28;20300;-62
2023/07/28 03:27:55;;;;;;;3.60;2.37;;;;;;;;;;5005257;28;20812;-63
2023/07/28 03:30:20;;;;;;;3.00;2.20;;;;;;;;;;4986670;28;20292;-64
2023/07/28 03:32:45;;;;;;;3.53;2.10;;;;;;;;;;4987015;28;20426;-64
2023/07/28 03:35:10;;;;;;;3.33;2.43;;;;;;;;;;5003907;28;20335;-63
2023/07/28 03:37:35;;;;;;;2.70;2.07;;;;;;;;;;5005110;28;20304;-63
2023/07/28 03:40:01;;;;;;;4.07;2.10;;;;;;;;;;5004506;28;20050;-63
2023/07/28 03:42:26;;;;;;;2.67;2.20;;;;;;;;;;5005212;28;20046;-65
2023/07/28 03:44:51;;;;;;;4.13;2.30;;;;;;;;;;5004701;28;20291;-63
2023/07/28 03:47:16;;;;;;;4.20;2.47;;;;;;;;;;5001486;28;20462;-63
2023/07/28 03:49:41;;;;;;;3.13;2.20;;;;;;;;;;5005024;28;20796;-64
2023/07/28 03:52:07;;;;;;;3.60;2.40;;;;;;;;;;5004470;28;20521;-64
2023/07/28 03:54:32;;;;;;;3.53;2.58;;;;;;;;;;4987645;28;20650;-64
2023/07/28 03:56:57;;;;;;;3.13;2.40;;;;;;;;;;4987592;28;20511;-64
2023/07/28 03:59:23;;;;;;;4.60;2.40;;;;;;;;;;4968767;28;20042;-64
2023/07/28 04:01:48;;;;;;;3.97;2.40;;;;;;;;;;4997654;28;20473;-63
2023/07/28 04:04:13;;;;;;;10.07;2.90;;;;;;;;;;5001298;28;20400;-64
2023/07/28 04:06:52;;;;;;;3.42;2.45;;;;;;;;;;5001034;28;20277;-64
2023/07/28 04:09:17;;;;;;;3.95;2.53;;;;;;;;;;5003111;28;20030;-63
2023/07/28 04:11:43;;;;;;;11.00;2.83;;;;;;;;;;5002587;28;20026;-64
2023/07/28 04:14:08;;;;;;;5.03;2.33;;;;;;;;;;5002194;28;20283;-64
2023/07/28 04:16:33;;;;;;;3.63;2.67;;;;;;;;;;4996602;28;20108;-64
2023/07/28 04:18:58;;;;;;;4.43;2.55;;;;;;;;;;4996748;28;20081;-63
2023/07/28 04:21:24;;;;;;;5.33;2.60;;;;;;;;;;4993237;28;20046;-63
2023/07/28 04:23:49;;;;;;;4.57;2.53;;;;;;;;;;4998666;28;20366;-65
2023/07/28 04:26:14;;;;;;;5.27;2.70;;;;;;;;;;4964024;28;20636;-65
2023/07/28 04:28:39;;;;;;;4.80;2.70;;;;;;;;;;4998843;28;20299;-65
2023/07/28 04:31:05;;;;;;;4.63;2.77;;;;;;;;;;4999678;28;20320;-69
2023/07/28 04:33:30;;;;;;;5.47;3.00;;;;;;;;;;4981517;28;20288;-67
2023/07/28 04:35:55;;;;;;;4.70;2.60;;;;;;;;;;5001165;28;20045;-61
2023/07/28 04:38:20;;;;;;;4.00;2.47;;;;;;;;;;4999673;28;20323;-64
2023/07/28 04:40:46;;;;;;;5.60;3.03;;;;;;;;;;4998117;28;20307;-65
2023/07/28 04:43:11;;;;;;;6.03;3.20;;;;;;;;;;4979944;28;20781;-63
2023/07/28 04:45:36;;;;;;;4.60;2.73;;;;;;;;;;4998045;28;20867;-64
2023/07/28 04:48:01;;;;;;;6.20;2.60;;;;;;;;;;4975543;28;20740;-62
2023/07/28 04:50:27;;;;;;;5.85;2.60;;;;;;;;;;4998473;28;20548;-64
2023/07/28 04:52:53;;;;;;;4.13;2.65;;;;;;;;;;4980996;28;21879;-62
2023/07/28 04:55:18;;;;;;;4.83;2.87;;;;;;;;;;5000632;28;20175;-62
2023/07/28 04:57:43;;;;;;;8.47;2.93;;;;;;;;;;4999184;28;21078;-63
2023/07/28 05:00:09;;;;;;;4.53;2.53;;;;;;;;;;5000932;28;20295;-63
2023/07/28 05:02:34;;;;;;;4.35;2.80;;;;;;;;;;5001167;28;20288;-63
2023/07/28 05:04:59;;;;;;;4.13;2.67;;;;;;;;;;5001329;28;20042;-66
2023/07/28 05:07:24;;;;;;;4.28;2.70;;;;;;;;;;4982810;28;20288;-64
2023/07/28 05:09:50;;;;;;;5.97;2.70;;;;;;;;;;5001106;28;20034;-65
2023/07/28 05:12:15;;;;;;;5.53;2.70;;;;;;;;;;4999744;28;20907;-69
2023/07/28 05:14:40;;;;;;;6.90;2.97;;;;;;;;;;4999547;28;20386;-68
2023/07/28 05:17:05;;;;;;;5.13;2.80;;;;;;;;;;4998490;28;20248;-63
2023/07/28 05:19:31;;;;;;;4.67;2.97;;;;;;;;;;4973148;28;20396;-65
2023/07/28 05:21:56;;;;;;;4.60;2.80;;;;;;;;;;4998970;28;20288;-64
2023/07/28 05:24:22;;;;;;;5.07;3.00;;;;;;;;;;4995767;28;20038;-67
2023/07/28 05:26:47;;;;;;;5.43;3.20;;;;;;;;;;4974365;28;20465;-66
2023/07/28 05:29:12;;;;;;;4.60;2.90;;;;;;;;;;5001352;28;20348;-66
2023/07/28 05:31:37;;;;;;;7.20;2.80;;;;;;;;;;5002085;28;20341;-67
2023/07/28 05:34:03;;;;;;;5.53;2.87;;;;;;;;;;5006713;28;20287;-66
2023/07/28 05:36:28;;;;;;;5.22;2.70;;;;;;;;;;5001020;28;20910;-67
2023/07/28 05:38:56;;;;;;;5.60;2.63;;;;;;;;;;5002792;28;20123;-63
2023/07/28 05:41:21;;;;;;;5.03;2.42;;;;;;;;;;5006371;28;20053;-67
2023/07/28 05:43:46;;;;;;;6.03;2.97;;;;;;;;;;4987556;28;20537;-65
2023/07/28 05:46:11;;;;;;;6.03;2.80;;;;;;;;;;5002757;28;20317;-66
2023/07/28 05:48:37;;;;;;;5.00;2.63;;;;;;;;;;4976369;28;20140;-67
2023/07/28 05:51:02;;;;;;;3.60;2.63;;;;;;;;;;5005459;28;20292;-67
2023/07/28 05:53:27;;;;;;;5.65;2.45;;;;;;;;;;5005135;28;20041;-64
2023/07/28 05:55:53;;;;;;;3.08;2.55;;;;;;;;;;5003199;28;20720;-67
2023/07/28 05:58:18;;;;;;;5.35;2.60;;;;;;;;;;5003474;28;20061;-64
2023/07/28 06:00:43;;;;;;;4.20;2.37;;;;;;;;;;5004167;28;20068;-64
2023/07/28 06:03:12;;;;;;;5.05;2.70;;;;;;;;;;5005935;28;20281;-65
2023/07/28 06:05:40;;;;;;;3.08;2.28;;;;;;;;;;4997749;28;20025;-66
2023/07/28 06:08:06;;;;;;;5.85;2.78;;;;;;;;;;4980383;28;20801;-65
2023/07/28 06:10:31;;;;;;;5.53;2.72;;;;;;;;;;4998406;28;20045;-66
2023/07/28 06:12:56;;;;;;;5.20;2.72;;;;;;;;;;5005317;28;20032;-66
2023/07/28 06:15:21;;;;;;;6.93;2.90;;;;;;;;;;4992974;28;20029;-68
2023/07/28 06:17:47;;;;;;;6.80;3.10;;;;;;;;;;5004760;28;20351;-65
2023/07/28 06:20:12;;;;;;;6.38;3.33;;;;;;;;;;5003603;28;20273;-64
2023/07/28 06:22:37;;;;;;;6.10;3.03;;;;;;;;;;5003214;28;20018;-67
2023/07/28 06:25:03;;;;;;;10.63;5.10;;;;;;;;;;5005549;28;20091;-68
2023/07/28 06:27:28;;;;;;;10.15;6.93;;;;;;;;;;4991414;28;20632;-68
2023/07/28 06:29:53;;;;;;;6.28;4.32;;;;;;;;;;4993073;28;20030;-67
2023/07/28 06:32:20;;;;;;;8.83;4.40;;;;;;;;;;4997343;28;20351;-66
2023/07/28 06:34:45;;;;;;;9.35;4.05;;;;;;;;;;5003267;28;20452;-65
2023/07/28 06:37:10;;;;;;;7.40;3.40;;;;;;;;;;5003191;28;20060;-65
2023/07/28 06:39:36;;;;;;;5.53;3.47;;;;;;;;;;4978498;28;20057;-66
2023/07/28 06:42:01;;;;;;;5.03;3.37;;;;;;;;;;4984591;28;20795;-65
2023/07/28 06:44:26;;;;;;;6.80;3.40;;;;;;;;;;5005479;28;20307;-66
2023/07/28 06:46:51;;;;;;;6.37;3.30;;;;;;;;;;5003801;28;20553;-64
2023/07/28 06:49:17;;;;;;;6.83;3.17;;;;;;;;;;5004069;28;20727;-65
2023/07/28 06:51:42;;;;;;;7.47;3.47;;;;;;;;;;4998725;28;20064;-64
2023/07/28 06:54:12;;;;;;;4.83;2.90;;;;;;;;;;4997711;28;20089;-62
2023/07/28 06:56:37;;;;;;;6.03;2.92;;;;;;;;;;4974170;28;22322;-65
2023/07/28 06:59:02;;;;;;;9.02;3.63;;;;;;;;;;5001307;28;20185;-66
2023/07/28 07:01:27;;;;;;;6.47;2.97;;;;;;;;;;5000692;28;20037;-63
2023/07/28 07:03:53;;;;;;;4.87;2.93;;;;;;;;;;4997465;28;20300;-66
2023/07/28 07:06:18;;;;;;;7.18;2.85;;;;;;;;;;4962712;28;20284;-66
2023/07/28 07:08:43;;;;;;;5.83;2.93;;;;;;;;;;4997643;28;20096;-65
2023/07/28 07:11:09;;;;;;;6.50;2.95;;;;;;;;;;4998313;28;20958;-61
2023/07/28 07:13:34;;;;;;;6.03;3.00;;;;;;;;;;4997273;28;20042;-63
2023/07/28 07:16:00;;;;;;;5.75;3.20;;;;;;;;;;5000619;28;20301;-63
2023/07/28 07:18:25;;;;;;;5.95;2.83;;;;;;;;;;5001808;28;20050;-64
2023/07/28 07:20:50;;;;;;;5.90;3.20;;;;;;;;;;5003788;28;20088;-64
2023/07/28 07:23:16;;;;;;;8.23;3.50;;;;;;;;;;4983299;28;20084;-66
2023/07/28 07:25:41;;;;;;;6.07;2.67;;;;;;;;;;5001041;28;20307;-64
2023/07/28 07:28:06;;;;;;;8.52;2.65;;;;;;;;;;5002096;28;20048;-64
2023/07/28 07:30:33;;;;;;;6.10;2.50;;;;;;;;;;4983893;28;20486;-65
2023/07/28 07:32:58;;;;;;;4.07;2.80;;;;;;;;;;4983974;28;20295;-62
2023/07/28 07:35:23;;;;;;;4.70;2.50;;;;;;;;;;5000970;28;20037;-64
2023/07/28 07:37:49;;;;;;;4.43;2.23;;;;;;;;;;4983736;28;20313;-63
2023/07/28 07:40:14;;;;;;;4.93;2.87;;;;;;;;;;4983472;28;20288;-61
2023/07/28 07:42:42;;;;;;;5.45;2.95;;;;;;;;;;5001370;28;20757;-61
2023/07/28 07:45:08;;;;;;;8.82;2.67;;;;;;;;;;4986264;28;20033;-64
2023/07/28 07:47:33;;;;;;;3.58;2.65;;;;;;;;;;5003427;28;20042;-68
2023/07/28 07:49:58;;;;;;;4.13;2.73;;;;;;;;;;5003937;28;20042;-66
2023/07/28 07:52:24;;;;;;;5.32;2.65;;;;;;;;;;5003071;28;20281;-64
2023/07/28 07:54:49;;;;;;;4.57;2.53;;;;;;;;;;5003832;28;20045;-66
2023/07/28 07:57:14;;;;;;;4.17;2.40;;;;;;;;;;5003024;28;20041;-63
2023/07/28 07:59:40;;;;;;;3.90;2.50;;;;;;;;;;4986247;28;20716;-64
2023/07/28 08:02:05;;;;;;;5.97;2.80;;;;;;;;;;4985298;28;20781;-65
2023/07/28 08:04:31;;;;;;;5.03;2.92;;;;;;;;;;5002275;28;20277;-65
2023/07/28 08:06:56;;;;;;;5.95;2.70;;;;;;;;;;5004861;28;20045;-64
2023/07/28 08:09:21;;;;;;;3.65;2.38;;;;;;;;;;5007149;28;20034;-65
2023/07/28 08:11:47;;;;;;;6.38;2.70;;;;;;;;;;5007491;28;20048;-63
2023/07/28 08:14:12;;;;;;;4.17;2.80;;;;;;;;;;5008919;28;20490;-67
2023/07/28 08:16:37;;;;;;;6.97;2.63;;;;;;;;;;4973293;28;20277;-67
2023/07/28 08:19:02;;;;;;;4.10;2.23;;;;;;;;;;5009498;28;20354;-68
2023/07/28 08:21:28;;;;;;;4.60;2.40;;;;;;;;;;5008164;28;20442;-66
2023/07/28 08:23:53;;;;;;;7.35;2.40;;;;;;;;;;4990663;28;20486;-69
2023/07/28 08:26:18;;;;;;;6.43;2.73;;;;;;;;;;4990331;28;20564;-69
2023/07/28 08:28:44;;;;;;;5.28;2.53;;;;;;;;;;5010796;28;20490;-69
2023/07/28 08:31:09;;;;;;;5.65;2.70;;;;;;;;;;4992134;28;20030;-66
2023/07/28 08:33:34;;;;;;;4.70;2.60;;;;;;;;;;5006919;28;20034;-65
2023/07/28 08:36:00;;;;;;;5.57;2.53;;;;;;;;;;5009407;28;20701;-64
2023/07/28 08:38:25;;;;;;;4.20;2.30;;;;;;;;;;5008160;28;20620;-65
2023/07/28 08:40:50;;;;;;;4.30;2.30;;;;;;;;;;4997782;28;20292;-66
2023/07/28 08:43:15;;;;;;;7.37;2.77;;;;;;;;;;5008744;28;20368;-67
2023/07/28 08:45:41;;;;;;;5.70;2.63;;;;;;;;;;5008355;28;20784;-63
2023/07/28 08:48:06;;;;;;;5.80;2.50;;;;;;;;;;5009480;28;20130;-64
2023/07/28 08:50:31;;;;;;;6.15;2.80;;;;;;;;;;4990865;28;20112;-65
2023/07/28 08:52:56;;;;;;;5.60;2.17;;;;;;;;;;5007069;28;21085;-66
2023/07/28 08:55:22;;;;;;;6.20;2.60;;;;;;;;;;4985717;28;20391;-65
2023/07/28 08:57:48;;;;;;;6.45;2.50;;;;;;;;;;5000525;28;20074;-68
2023/07/28 09:00:14;;;;;;;4.03;2.40;;;;;;;;;;4996941;28;20499;-68
2023/07/28 09:02:40;;;;;;;6.20;2.65;;;;;;;;;;4999771;28;20502;-63
2023/07/28 09:05:05;;;;;;;4.78;2.50;;;;;;;;;;4998121;28;20045;-65
2023/07/28 09:07:37;;;;;;;3.65;2.00;;;;;;;;;;4987493;28;20031;-66
2023/07/28 09:10:02;;;;;;;4.32;2.00;;;;;;;;;;4998121;28;20050;-64
2023/07/28 09:12:30;;;;;;;4.43;2.30;;;;;;;;;;4986854;28;20472;-65
2023/07/28 09:14:56;;;;;;;5.25;2.20;;;;;;;;;;5003798;28;20037;-62
2023/07/28 09:17:21;;;;;;;5.38;2.20;;;;;;;;;;5003748;28;20041;-66
2023/07/28 09:19:53;;;;;;;4.07;2.17;;;;;;;;;;4979310;28;20086;-63
2023/07/28 09:22:19;;;;;;;4.25;2.10;;;;;;;;;;4998756;28;20049;-62
2023/07/28 09:24:44;;;;;;;4.75;2.15;;;;;;;;;;4983289;28;20033;-63
2023/07/28 09:27:12;;;;;;;6.15;2.38;;;;;;;;;;5000194;28;20070;-63
2023/07/28 09:29:38;;;;;;;4.60;2.40;;;;;;;;;;4983335;28;20135;-65
2023/07/28 09:32:04;;;;;;;4.00;2.00;;;;;;;;;;4997564;28;20179;-64
2023/07/28 09:34:29;;;;;;;5.38;2.40;;;;;;;;;;4981542;28;20333;-64
2023/07/28 09:36:55;;;;;;;5.68;2.40;;;;;;;;;;5000027;28;20038;-64
2023/07/28 09:39:20;;;;;;;4.75;2.10;;;;;;;;;;4982298;28;20140;-64
2023/07/28 09:41:46;;;;;;;3.72;2.40;;;;;;;;;;4999445;28;20034;-64
2023/07/28 09:44:11;;;;;;;3.20;2.13;;;;;;;;;;4987456;28;20061;-64
2023/07/28 09:46:36;;;;;;;4.60;2.57;;;;;;;;;;5006896;28;20514;-65
2023/07/28 09:49:03;;;;;;;5.27;2.10;;;;;;;;;;4982588;28;20661;-65
2023/07/28 09:51:30;;;;;;;2.90;2.25;;;;;;;;;;4981342;28;20034;-68
2023/07/28 09:53:56;;;;;;;3.58;2.08;;;;;;;;;;5012277;28;20083;-69
2023/07/28 09:56:22;;;;;;;3.35;2.10;;;;;;;;;;5006526;28;20492;-69
2023/07/28 09:58:49;;;;;;;3.65;2.30;;;;;;;;;;5006402;28;20046;-66
2023/07/28 10:01:14;;;;;;;3.70;2.08;;;;;;;;;;5007751;28;20110;-66
2023/07/28 10:03:39;;;;;;;5.07;2.30;;;;;;;;;;4989378;28;20497;-69
2023/07/28 10:06:05;;;;;;;4.53;2.20;;;;;;;;;;4988596;28;20652;-66
2023/07/28 10:08:30;;;;;;;2.60;1.83;;;;;;;;;;4985014;28;20854;-67
2023/07/28 10:10:56;;;;;;;4.30;2.00;;;;;;;;;;4988026;28;20041;-66
2023/07/28 10:13:21;;;;;;;3.88;1.92;;;;;;;;;;5004221;28;20505;-68
2023/07/28 10:15:50;;;;;;;4.22;2.53;;;;;;;;;;5002211;28;20066;-70
2023/07/28 10:18:15;;;;;;;4.50;2.20;;;;;;;;;;4971944;28;20062;-68
2023/07/28 10:20:42;;;;;;;6.95;2.25;;;;;;;;;;4999268;28;20030;-70
2023/07/28 10:23:17;;;;;;;2.92;1.95;;;;;;;;;;4971595;28;20750;-68
2023/07/28 10:25:43;;;;;;;3.13;1.98;;;;;;;;;;4986199;28;20481;-69
2023/07/28 10:28:28;;;;;;;4.03;2.25;;;;;;;;;;5005488;28;20045;-68
2023/07/28 10:30:54;;;;;;;3.95;2.28;;;;;;;;;;4986741;28;20100;-68
2023/07/28 10:33:33;;;;;;;4.28;2.60;;;;;;;;;;5009542;28;20065;-68
2023/07/28 10:35:59;;;;;;;6.15;2.67;;;;;;;;;;5001695;28;20061;-65
2023/07/28 10:38:31;;;;;;;4.38;2.20;;;;;;;;;;4999587;28;20092;-63
2023/07/28 10:41:10;;;;;;;3.47;2.17;;;;;;;;;;5001848;28;20125;-62
2023/07/28 10:43:36;;;;;;;4.95;2.40;;;;;;;;;;4981679;28;20515;-63
2023/07/28 10:46:01;;;;;;;4.05;2.20;;;;;;;;;;5001506;28;20033;-64
2023/07/28 10:48:26;;;;;;;4.30;2.10;;;;;;;;;;4978735;28;20150;-65
2023/07/28 10:50:52;;;;;;;6.95;2.40;;;;;;;;;;5001621;28;20268;-66
2023/07/28 10:53:25;;;;;;;4.30;2.20;;;;;;;;;;5059909;28;20448;-66
2023/07/28 10:55:50;;;;;;;3.30;2.33;;;;;;;;;;5023586;28;20682;-66
2023/07/28 10:58:15;;;;;;;4.57;2.20;;;;;;;;;;5032253;28;20042;-64
2023/07/28 11:00:41;;;;;;;4.83;2.23;;;;;;;;;;5042511;28;20028;-66
2023/07/28 11:03:07;;;;;;;4.72;2.45;;;;;;;;;;5040413;28;20268;-65
2023/07/28 11:05:33;;;;;;;4.80;2.15;;;;;;;;;;5035043;28;20025;-65
2023/07/28 11:07:58;;;;;;;3.47;2.33;;;;;;;;;;5041703;28;20127;-64
2023/07/28 11:10:24;;;;;;;3.28;2.38;;;;;;;;;;5041777;28;20053;-62
2023/07/28 11:12:50;;;;;;;3.70;2.58;;;;;;;;;;5040364;28;20557;-62
2023/07/28 11:15:16;;;;;;;4.63;2.30;;;;;;;;;;5028814;28;20143;-64
2023/07/28 11:17:42;;;;;;;4.35;2.17;;;;;;;;;;5073828;28;20120;-62
2023/07/28 11:20:13;;;;;;;5.85;2.33;;;;;;;;;;5034590;28;20042;-66
2023/07/28 11:22:39;;;;;;;4.07;2.03;;;;;;;;;;5034457;28;20049;-64
2023/07/28 11:25:09;;;;;;;4.10;1.97;;;;;;;;;;5039678;28;20145;-62
2023/07/28 11:27:34;;;;;;;4.20;2.10;;;;;;;;;;5041533;28;20410;-62
2023/07/28 11:29:59;;;;;;;4.13;1.97;;;;;;;;;;5042068;28;20120;-62
2023/07/28 11:32:24;;;;;;;3.87;2.07;;;;;;;;;;5034670;28;20292;-63
2023/07/28 11:34:50;;;;;;;3.73;2.50;;;;;;;;;;5015883;28;20270;-62
2023/07/28 11:37:15;;;;;;;3.67;2.08;;;;;;;;;;5018473;28;20288;-65
2023/07/28 11:39:41;;;;;;;3.93;2.07;;;;;;;;;;5001702;28;20491;-70
2023/07/28 11:42:06;;;;;;;3.60;1.93;;;;;;;;;;5026265;28;20059;-66
2023/07/28 11:44:31;;;;;;;4.57;1.90;;;;;;;;;;5036444;28;20299;-69
2023/07/28 11:46:56;;;;;;;3.42;2.20;;;;;;;;;;5033579;28;20308;-67
2023/07/28 11:49:22;;;;;;;2.83;2.00;;;;;;;;;;5027358;28;20037;-67
2023/07/28 11:51:48;;;;;;;4.95;1.88;;;;;;;;;;5033532;28;20049;-64
2023/07/28 11:54:14;;;;;;;5.53;2.00;;;;;;;;;;5031248;28;20194;-68
2023/07/28 11:56:40;;;;;;;2.22;1.60;;;;;;;;;;5039106;28;20461;-64
2023/07/28 11:59:05;;;;;;;2.95;2.10;;;;;;;;;;5040278;28;20033;-68
2023/07/28 12:01:31;;;;;;;3.77;2.00;;;;;;;;;;5021918;28;20045;-70
2023/07/28 12:03:56;;;;;;;2.58;1.67;;;;;;;;;;5014186;28;20039;-63
2023/07/28 12:06:21;;;;;;;2.60;1.90;;;;;;;;;;5025570;28;20037;-63
2023/07/28 12:08:47;;;;;;;2.77;1.93;;;;;;;;;;5025718;28;20585;-66
2023/07/28 12:11:13;;;;;;;3.50;1.88;;;;;;;;;;5027607;28;20561;-67
2023/07/28 12:13:50;;;;;;;3.28;1.83;;;;;;;;;;5027834;28;21036;-65
2023/07/28 12:16:37;;;;;;;2.22;1.73;;;;;;;;;;5018662;28;20033;-65
2023/07/28 12:19:04;;;;;;;3.83;1.90;;;;;;;;;;5014676;28;20041;-66
2023/07/28 12:21:31;;;;;;;2.38;1.88;;;;;;;;;;5012945;28;20029;-66
2023/07/28 12:23:56;;;;;;;3.28;1.77;;;;;;;;;;5025077;28;20042;-65
2023/07/28 12:26:21;;;;;;;4.57;2.13;;;;;;;;;;5026078;28;20041;-66
2023/07/28 12:28:46;;;;;;;3.50;2.20;;;;;;;;;;5025901;28;20056;-65
2023/07/28 12:31:12;;;;;;;4.27;1.70;;;;;;;;;;5025944;28;20139;-64
2023/07/28 12:33:37;;;;;;;3.00;1.88;;;;;;;;;;5026425;28;20072;-64
2023/07/28 12:36:02;;;;;;;3.45;2.08;;;;;;;;;;5023904;28;20053;-65
2023/07/28 12:38:28;;;;;;;2.53;1.80;;;;;;;;;;5020706;28;20038;-65
2023/07/28 12:40:54;;;;;;;2.63;1.77;;;;;;;;;;5020084;28;20029;-68
2023/07/28 12:43:19;;;;;;;4.15;1.80;;;;;;;;;;5013872;28;20092;-69
2023/07/28 12:45:45;;;;;;;3.40;1.90;;;;;;;;;;5021495;28;20109;-67
2023/07/28 12:48:10;;;;;;;4.13;1.70;;;;;;;;;;5022573;28;20453;-68
2023/07/28 12:50:35;;;;;;;3.77;2.10;;;;;;;;;;5018334;28;20303;-66
2023/07/28 12:53:00;;;;;;;3.33;1.80;;;;;;;;;;5010629;28;20136;-65
2023/07/28 12:55:27;;;;;;;2.40;1.80;;;;;;;;;;5018257;28;20133;-66
2023/07/28 12:57:53;;;;;;;3.30;2.13;;;;;;;;;;5004074;28;20116;-66
2023/07/28 13:00:18;;;;;;;5.45;1.95;;;;;;;;;;5015926;28;20037;-64
2023/07/28 13:02:43;;;;;;;2.37;1.97;;;;;;;;;;5022245;28;20045;-68
2023/07/28 13:05:10;;;;;;;2.53;1.85;;;;;;;;;;5006665;28;20100;-65
2023/07/28 13:07:35;;;;;;;3.28;2.13;;;;;;;;;;5015822;28;20120;-61
2023/07/28 13:10:00;;;;;;;2.97;2.10;;;;;;;;;;5009938;28;20037;-63
2023/07/28 13:12:26;;;;;;;3.57;2.00;;;;;;;;;;5012156;28;20072;-66
2023/07/28 13:14:51;;;;;;;2.87;1.80;;;;;;;;;;5012050;28;20288;-66
2023/07/28 13:17:16;;;;;;;4.23;2.00;;;;;;;;;;5014158;28;20362;-68
2023/07/28 13:19:41;;;;;;;3.73;1.60;;;;;;;;;;5013487;28;20053;-68
2023/07/28 13:22:07;;;;;;;2.83;1.80;;;;;;;;;;5013949;28;20179;-63
2023/07/28 13:24:32;;;;;;;3.25;2.05;;;;;;;;;;5010597;28;20170;-63
2023/07/28 13:26:58;;;;;;;2.40;1.70;;;;;;;;;;5009403;28;20438;-67
2023/07/28 13:29:23;;;;;;;2.97;1.80;;;;;;;;;;5012288;28;20787;-69
2023/07/28 13:31:48;;;;;;;2.95;1.80;;;;;;;;;;5010939;28;20054;-65
2023/07/28 13:34:13;;;;;;;2.30;1.70;;;;;;;;;;5010268;28;20148;-66
2023/07/28 13:36:39;;;;;;;3.53;2.00;;;;;;;;;;5012354;28;20052;-65
2023/07/28 13:39:05;;;;;;;2.70;1.50;;;;;;;;;;5011258;28;20489;-62
2023/07/28 13:41:31;;;;;;;5.50;1.98;;;;;;;;;;5009111;28;20038;-65
2023/07/28 13:43:56;;;;;;;3.60;1.80;;;;;;;;;;5013604;28;20183;-65
2023/07/28 13:46:21;;;;;;;2.23;1.60;;;;;;;;;;5011540;28;20315;-67
2023/07/28 13:48:46;;;;;;;3.37;1.70;;;;;;;;;;5009689;28;20428;-71
2023/07/28 13:51:12;;;;;;;3.00;1.80;;;;;;;;;;5011320;28;20292;-66
2023/07/28 13:53:37;;;;;;;2.28;1.80;;;;;;;;;;5012646;28;20037;-63
2023/07/28 13:56:03;;;;;;;3.15;1.95;;;;;;;;;;5016190;28;20524;-66
2023/07/28 13:58:28;;;;;;;1.95;1.35;;;;;;;;;;5012352;28;20128;-68
2023/07/28 14:00:53;;;;;;;2.50;1.83;;;;;;;;;;5011495;28;20501;-69
2023/07/28 14:03:19;;;;;;;2.83;1.87;;;;;;;;;;5012540;28;20512;-66
2023/07/28 14:05:44;;;;;;;2.60;1.70;;;;;;;;;;5019321;28;20314;-64
2023/07/28 14:08:09;;;;;;;2.25;1.80;;;;;;;;;;5016568;28;20038;-65
2023/07/28 14:10:36;;;;;;;2.85;1.90;;;;;;;;;;5012761;28;20167;-66
2023/07/28 14:13:01;;;;;;;3.10;2.20;;;;;;;;;;5008880;28;20046;-64
2023/07/28 14:15:26;;;;;;;2.60;1.70;;;;;;;;;;5015500;28;20113;-67
2023/07/28 14:17:52;;;;;;;3.27;2.07;;;;;;;;;;5012032;28;20137;-64
2023/07/28 14:20:17;;;;;;;2.85;1.80;;;;;;;;;;5013528;28;20122;-62
2023/07/28 14:22:42;;;;;;;2.40;1.73;;;;;;;;;;5013271;28;20861;-67
2023/07/28 14:25:07;;;;;;;2.37;2.10;;;;;;;;;;5011622;28;20064;-65
2023/07/28 14:27:33;;;;;;;2.53;1.95;;;;;;;;;;5011937;28;20061;-67
2023/07/28 14:29:58;;;;;;;2.73;2.07;;;;;;;;;;5019094;28;20038;-70
2023/07/28 14:32:23;;;;;;;2.20;1.70;;;;;;;;;;5009998;28;20064;-67
2023/07/28 14:34:48;;;;;;;2.50;1.90;;;;;;;;;;5015721;28;20034;-70